Airfield :
LOGIN :

Register | Disclaimer

   EN    FR    IT 

 










Legend :    VFR   Marginal VFR   IFR   Intensive IFR   Very Intensive IFR
Visi :
Ceiling :
>= 8 km
>= 3000ft
5 to 8 km
1000 to 3000 ft
1500m to 5 km
500 to 1000 ft
800 to 1500m
200 to 500 ft
< 800m
< 200 ft
Symbols :   Thunderstorms  Fog  Heavy snow  Heavy precipitations  Wind > 20 kt
SIGMETs :     Misc.  Thunderstorms  Icing  Turbulence  Mountain Waves  Volcanic Ashes







- Airport Elevation : 302 ft
- IATA code : MAH


LEMH - Menorca

CURRENT METAR :
  • 232000Z 17014KT 9999 -DZ SCT010 BKN025TCU 13/10 Q1015

EXPIRED METARs :
  • 231930Z 16015KT 140V200 9999 FEW010 SCT022TCU BKN027 13/10 Q1014
  • 231900Z 17014KT 9999 -DZ SCT010 BKN022TCU BKN027 13/11 Q1014
  • 231830Z 17016KT 9999 SCT008 BKN018 13/10 Q1013
  • 231800Z 16011KT 9999 FEW009 14/12 Q1013
  • 231730Z 18008KT 9999 FEW025 14/10 Q1012
  • 231700Z 18008KT 9999 FEW025 14/10 Q1012

TAF TAF LEMH
Valid from the 23 at 15:00 until the 24 at 15:00 UTC


231400Z 2315/2415 21014KT 9999 FEW014 TX17/2413Z TN07/2406Z
BECMG 2320/2322 15012KT
BECMG 2404/2406 VRB03KT
PROB30
TEMPO 2318/2415 4000 SHRA BKN012 SCT020TCU
No reported NOTAMs for that airfield.
2 SIGMETs reported for the Barcelona FIR (LECB) :
 
Severe turbulence
LECB SIGMET 2 VALID 232000/232400 LEVA
LECB BARCELONA FIR SEV TURB FCST WI N4230 E003 - N3850 E00130 - N3930 W00110 - N4250 E00002 FL180/230 STNR NC=
Severe turbulence
LECB SIGMET 1 VALID 231626/232000 LEVA
LECB BARCELONA FIR SEV TURB FCST WI N3650 W00150 - N3650 W001 - N4230 E00220 - N43 E001 FL180/220 STNR NC=



MET'MAP, your aeronautical weather chart ! - Copyright ORBIFLY December 2007 - Disclaimer

ORBIFLY MET'MAP TEAM :

Programming & Development : Alexandra Zaïnal
Concept & Development : Baudouin d'Aumeries
Co-Development & Prog : Marc-Olivier Méhu
Technical & hardware support : Manuel Goepfert

Contact : metmap@orbifly.com




SOURCES & CREDITS :

   NOAA